Suffolk, Texas
Current Conditions -  °F | °C
As of 2:15 AM on Tuesday 21 Oct 2014 (Local Time) from KOSA Reporting Station
Overcast Overcast  
Wind Chill: 15°   Ceiling: 500
Heat Index: 15°   Visibility: 0.75mi
Dew Point: 14°   Wind: 0mph
Humidity: 99%   Direction: NA
Pressure: 30.06"   Gusts: NA
Location:  32.7353°N, 94.9492°W
Report Text: KOSA 210715Z AUTO 00000KT 3/4SM VV005 15/14 A3006 RMK AO1 T01450144
Loading
Personal Weather Stations






























Interactive Weather Map
Tropical Storm Tracking
New forecast layout! Learn more

10-Day Weather Forecast

Advertisements
Track Severe Weather on mobile